PRIVATE WETTERSTATION BILLIGHEIM-ALLFELD                       ZURCK
Wetterdaten: Mittwoch, 27.12.2017
Datum Zeit Temp. A. Temp. A. min Temp. A. max Feuchte A. Luftdruck Regen Wind Richtung Richtung Sonnenschein ET Solar Taupunkt Windchill Windben Empfang
27.12.2017 00:00 2,6 C 2,4 C 2,6 C 82 % 1000,5 hPa 0,0 l/m 0,0 km/h (0 Bft) SO 135 0 min 0,000 mm 0 W/m -0,2 C 2,6 C 1,6 km/h (1 Bft) 98 %
27.12.2017 00:10 2,6 C 2,6 C 2,6 C 81 % 1000,4 hPa 0,0 l/m 0,0 km/h (0 Bft) N 0 0 min 0,000 mm 0 W/m -0,3 C 2,6 C 0,0 km/h (0 Bft) 98 %
27.12.2017 00:20 2,6 C 2,6 C 2,6 C 81 % 1000,1 hPa 0,0 l/m 0,0 km/h (0 Bft) N 0 0 min 0,000 mm 0 W/m -0,3 C 2,6 C 0,0 km/h (0 Bft) 98 %
27.12.2017 00:30 2,6 C 2,6 C 2,6 C 81 % 1000,0 hPa 0,0 l/m 0,0 km/h (0 Bft) N 0 0 min 0,000 mm 0 W/m -0,3 C 2,6 C 0,0 km/h (0 Bft) 98 %
27.12.2017 00:40 2,4 C 2,4 C 2,6 C 82 % 999,8 hPa 0,0 l/m 0,0 km/h (0 Bft) N 0 0 min 0,000 mm 0 W/m -0,4 C 2,4 C 0,0 km/h (0 Bft) 88 %
27.12.2017 00:50 1,8 C 1,8 C 2,4 C 84 % 999,4 hPa 0,0 l/m 0,0 km/h (0 Bft) N 0 0 min 0,000 mm 0 W/m -0,6 C 1,8 C 0,0 km/h (0 Bft) 97 %
27.12.2017 01:00 1,6 C 1,6 C 1,8 C 85 % 999,0 hPa 0,0 l/m 0,0 km/h (0 Bft) N 0 0 min 0,000 mm 0 W/m -0,6 C 1,6 C 0,0 km/h (0 Bft) 98 %
27.12.2017 01:10 1,4 C 1,4 C 1,6 C 85 % 998,7 hPa 0,0 l/m 0,0 km/h (0 Bft) N 0 0 min 0,000 mm 0 W/m -0,8 C 1,4 C 0,0 km/h (0 Bft) 98 %
27.12.2017 01:20 1,1 C 1,1 C 1,4 C 86 % 998,3 hPa 0,0 l/m 0,0 km/h (0 Bft) N 0 0 min 0,000 mm 0 W/m -1,0 C 1,1 C 0,0 km/h (0 Bft) 98 %
27.12.2017 01:30 1,0 C 1,0 C 1,1 C 87 % 998,1 hPa 0,0 l/m 0,0 km/h (0 Bft) SO 135 0 min 0,000 mm 0 W/m -0,9 C 1,0 C 4,8 km/h (1 Bft) 98 %
27.12.2017 01:40 1,1 C 1,0 C 1,1 C 87 % 997,7 hPa 0,0 l/m 0,0 km/h (0 Bft) SO 135 0 min 0,000 mm 0 W/m -0,8 C 1,1 C 6,4 km/h (2 Bft) 97 %
27.12.2017 01:50 1,1 C 1,1 C 1,2 C 87 % 997,7 hPa 0,0 l/m 0,0 km/h (0 Bft) SO 135 0 min 0,000 mm 0 W/m -0,8 C 1,1 C 6,4 km/h (2 Bft) 98 %
27.12.2017 02:00 0,7 C 0,7 C 1,1 C 87 % 997,5 hPa 0,0 l/m 0,0 km/h (0 Bft) SO 135 0 min 0,000 mm 0 W/m -1,2 C 0,7 C 3,2 km/h (1 Bft) 97 %
27.12.2017 02:10 0,4 C 0,4 C 0,7 C 88 % 997,5 hPa 0,0 l/m 0,0 km/h (0 Bft) N 0 0 min 0,000 mm 0 W/m -1,3 C 0,4 C 0,0 km/h (0 Bft) 99 %
27.12.2017 02:20 0,3 C 0,3 C 0,4 C 89 % 997,4 hPa 0,0 l/m 0,0 km/h (0 Bft) N 0 0 min 0,000 mm 0 W/m -1,3 C 0,3 C 0,0 km/h (0 Bft) 97 %
27.12.2017 02:30 0,3 C 0,3 C 0,3 C 89 % 997,2 hPa 0,0 l/m 0,0 km/h (0 Bft) N 0 0 min 0,000 mm 0 W/m -1,3 C 0,3 C 0,0 km/h (0 Bft) 97 %
27.12.2017 02:40 0,2 C 0,2 C 0,3 C 89 % 996,7 hPa 0,0 l/m 0,0 km/h (0 Bft) N 0 0 min 0,000 mm 0 W/m -1,4 C 0,2 C 0,0 km/h (0 Bft) 96 %
27.12.2017 02:50 0,1 C 0,1 C 0,2 C 89 % 996,6 hPa 0,0 l/m 0,0 km/h (0 Bft) N 0 0 min 0,000 mm 0 W/m -1,5 C 0,1 C 0,0 km/h (0 Bft) 97 %
27.12.2017 03:00 0,2 C 0,1 C 0,2 C 89 % 995,9 hPa 0,0 l/m 0,0 km/h (0 Bft) SO 135 0 min 0,000 mm 0 W/m -1,4 C 0,2 C 3,2 km/h (1 Bft) 98 %
27.12.2017 03:10 0,5 C 0,2 C 0,5 C 88 % 995,6 hPa 0,0 l/m 0,0 km/h (0 Bft) SO 135 0 min 0,000 mm 0 W/m -1,3 C 0,5 C 4,8 km/h (1 Bft) 98 %
27.12.2017 03:20 0,4 C 0,4 C 0,6 C 87 % 995,6 hPa 0,0 l/m 0,0 km/h (0 Bft) O-SO 112 0 min 0,000 mm 0 W/m -1,5 C 0,4 C 3,2 km/h (1 Bft) 98 %
27.12.2017 03:30 0,2 C 0,2 C 0,4 C 88 % 995,3 hPa 0,0 l/m 0,0 km/h (0 Bft) N 0 0 min 0,000 mm 0 W/m -1,5 C 0,2 C 0,0 km/h (0 Bft) 99 %
27.12.2017 03:40 0,0 C 0,0 C 0,2 C 89 % 995,0 hPa 0,0 l/m 0,0 km/h (0 Bft) O-SO 112 0 min 0,000 mm 0 W/m -1,6 C 0,0 C 1,6 km/h (1 Bft) 100 %
27.12.2017 03:50 -0,2 C -0,2 C 0,0 C 89 % 994,6 hPa 0,0 l/m 0,0 km/h (0 Bft) NO 45 0 min 0,000 mm 0 W/m -1,8 C -0,2 C 3,2 km/h (1 Bft) 100 %
27.12.2017 04:00 -0,3 C -0,3 C -0,2 C 90 % 994,5 hPa 0,0 l/m 0,0 km/h (0 Bft) N 0 0 min 0,000 mm 0 W/m -1,7 C -0,3 C 0,0 km/h (0 Bft) 100 %
27.12.2017 04:10 -0,3 C -0,3 C -0,3 C 90 % 994,2 hPa 0,0 l/m 0,0 km/h (0 Bft) O-NO 67 0 min 0,000 mm 0 W/m -1,7 C -0,3 C 3,2 km/h (1 Bft) 100 %
27.12.2017 04:20 -0,2 C -0,3 C -0,2 C 90 % 993,9 hPa 0,0 l/m 0,0 km/h (0 Bft) N 0 0 min 0,000 mm 0 W/m -1,6 C -0,2 C 0,0 km/h (0 Bft) 99 %
27.12.2017 04:30 -0,2 C -0,2 C -0,2 C 90 % 993,7 hPa 0,0 l/m 0,0 km/h (0 Bft) O 90 0 min 0,000 mm 0 W/m -1,6 C -0,2 C 6,4 km/h (2 Bft) 100 %
27.12.2017 04:40 0,1 C -0,2 C 0,1 C 89 % 993,3 hPa 0,0 l/m 0,0 km/h (0 Bft) O-SO 112 0 min 0,000 mm 0 W/m -1,5 C 0,1 C 4,8 km/h (1 Bft) 99 %
27.12.2017 04:50 0,2 C 0,1 C 0,2 C 89 % 993,1 hPa 0,0 l/m 0,0 km/h (0 Bft) O-SO 112 0 min 0,000 mm 0 W/m -1,4 C 0,2 C 3,2 km/h (1 Bft) 100 %
27.12.2017 05:00 0,2 C 0,2 C 0,2 C 89 % 992,7 hPa 0,0 l/m 0,0 km/h (0 Bft) O-SO 112 0 min 0,000 mm 0 W/m -1,4 C 0,2 C 3,2 km/h (1 Bft) 100 %
27.12.2017 05:10 0,6 C 0,2 C 0,6 C 90 % 992,4 hPa 0,0 l/m 1,6 km/h (1 Bft) SO 135 0 min 0,000 mm 0 W/m -0,8 C 0,6 C 6,4 km/h (2 Bft) 100 %
27.12.2017 05:20 1,2 C 0,6 C 1,2 C 87 % 992,3 hPa 0,0 l/m 0,0 km/h (0 Bft) O-SO 112 0 min 0,000 mm 0 W/m -0,7 C 1,2 C 9,7 km/h (2 Bft) 100 %
27.12.2017 05:30 1,4 C 1,2 C 1,4 C 87 % 991,9 hPa 0,0 l/m 0,0 km/h (0 Bft) N 0 0 min 0,000 mm 0 W/m -0,5 C 1,4 C 0,0 km/h (0 Bft) 100 %
27.12.2017 05:40 1,4 C 1,4 C 1,4 C 87 % 991,7 hPa 0,0 l/m 0,0 km/h (0 Bft) O-SO 112 0 min 0,000 mm 0 W/m -0,5 C 1,4 C 1,6 km/h (1 Bft) 99 %
27.12.2017 05:50 1,3 C 1,3 C 1,4 C 87 % 991,6 hPa 0,0 l/m 0,0 km/h (0 Bft) O-SO 112 0 min 0,000 mm 0 W/m -0,6 C 1,3 C 4,8 km/h (1 Bft) 100 %
27.12.2017 06:00 1,3 C 1,3 C 1,3 C 87 % 991,6 hPa 0,0 l/m 0,0 km/h (0 Bft) O-SO 112 0 min 0,000 mm 0 W/m -0,6 C 1,3 C 4,8 km/h (1 Bft) 100 %
27.12.2017 06:10 1,3 C 1,2 C 1,3 C 88 % 991,3 hPa 0,0 l/m 0,0 km/h (0 Bft) SO 135 0 min 0,000 mm 0 W/m -0,5 C 1,3 C 4,8 km/h (1 Bft) 100 %
27.12.2017 06:20 1,9 C 1,3 C 1,9 C 85 % 991,4 hPa 0,0 l/m 3,2 km/h (1 Bft) SO 135 0 min 0,000 mm 0 W/m -0,3 C 1,9 C 9,7 km/h (2 Bft) 100 %
27.12.2017 06:30 2,3 C 2,0 C 2,3 C 84 % 991,7 hPa 0,0 l/m 1,6 km/h (1 Bft) S-SO 157 0 min 0,000 mm 0 W/m -0,1 C 2,3 C 6,4 km/h (2 Bft) 100 %
27.12.2017 06:40 2,1 C 2,1 C 2,3 C 85 % 991,5 hPa 0,0 l/m 0,0 km/h (0 Bft) W 270 0 min 0,000 mm 0 W/m -0,2 C 2,1 C 3,2 km/h (1 Bft) 100 %
27.12.2017 06:50 2,4 C 2,1 C 2,4 C 83 % 991,5 hPa 0,0 l/m 1,6 km/h (1 Bft) SO 135 0 min 0,000 mm 0 W/m -0,2 C 2,4 C 6,4 km/h (2 Bft) 100 %
27.12.2017 07:00 2,4 C 2,4 C 2,5 C 84 % 991,2 hPa 0,0 l/m 1,6 km/h (1 Bft) W-NW 292 0 min 0,000 mm 0 W/m -0,0 C 2,4 C 4,8 km/h (1 Bft) 100 %
27.12.2017 07:10 1,9 C 1,9 C 2,3 C 85 % 991,3 hPa 0,0 l/m 0,0 km/h (0 Bft) N-NW 337 0 min 0,000 mm 0 W/m -0,3 C 1,9 C 3,2 km/h (1 Bft) 99 %
27.12.2017 07:20 1,7 C 1,7 C 1,9 C 87 % 991,3 hPa 0,0 l/m 0,0 km/h (0 Bft) N-NW 337 0 min 0,000 mm 0 W/m -0,2 C 1,7 C 1,6 km/h (1 Bft) 100 %
27.12.2017 07:30 1,6 C 1,6 C 1,7 C 87 % 991,2 hPa 0,0 l/m 0,0 km/h (0 Bft) N 0 0 min 0,000 mm 0 W/m -0,3 C 1,6 C 0,0 km/h (0 Bft) 100 %
27.12.2017 07:40 1,6 C 1,6 C 1,6 C 88 % 991,1 hPa 0,0 l/m 0,0 km/h (0 Bft) NW 315 0 min 0,000 mm 0 W/m -0,2 C 1,6 C 4,8 km/h (1 Bft) 100 %
27.12.2017 07:50 1,6 C 1,5 C 1,6 C 88 % 991,2 hPa 0,0 l/m 0,0 km/h (0 Bft) N 0 0 min 0,000 mm 0 W/m -0,2 C 1,6 C 0,0 km/h (0 Bft) 100 %
27.12.2017 08:00 1,6 C 1,6 C 1,6 C 88 % 991,2 hPa 0,0 l/m 0,0 km/h (0 Bft) N 0 0 min 0,000 mm 0 W/m -0,2 C 1,6 C 0,0 km/h (0 Bft) 100 %
27.12.2017 08:10 1,6 C 1,6 C 1,7 C 88 % 991,2 hPa 0,0 l/m 0,0 km/h (0 Bft) N 0 0 min 0,000 mm 0 W/m -0,2 C 1,6 C 0,0 km/h (0 Bft) 90 %
27.12.2017 08:20 1,6 C 1,6 C 1,6 C 88 % 991,0 hPa 0,0 l/m 0,0 km/h (0 Bft) N 0 0 min 0,000 mm 0 W/m -0,2 C 1,6 C 0,0 km/h (0 Bft) 100 %
27.12.2017 08:30 1,6 C 1,6 C 1,6 C 88 % 990,8 hPa 0,0 l/m 0,0 km/h (0 Bft) N 0 0 min 0,000 mm 0 W/m -0,2 C 1,6 C 0,0 km/h (0 Bft) 100 %
27.12.2017 08:40 1,5 C 1,5 C 1,6 C 88 % 990,6 hPa 0,0 l/m 0,0 km/h (0 Bft) N 0 0 min 0,000 mm 7 W/m -0,3 C 1,5 C 0,0 km/h (0 Bft) 100 %
27.12.2017 08:50 1,6 C 1,5 C 1,6 C 88 % 990,5 hPa 0,0 l/m 0,0 km/h (0 Bft) N 0 0 min 0,000 mm 14 W/m -0,2 C 1,6 C 0,0 km/h (0 Bft) 100 %
27.12.2017 09:00 1,6 C 1,6 C 1,6 C 89 % 990,3 hPa 0,0 l/m 0,0 km/h (0 Bft) N 0 0 min 0,000 mm 18 W/m -0,0 C 1,6 C 0,0 km/h (0 Bft) 100 %
27.12.2017 09:10 1,4 C 1,4 C 1,6 C 89 % 990,1 hPa 0,0 l/m 0,0 km/h (0 Bft) N 0 0 min 0,000 mm 26 W/m -0,2 C 1,4 C 0,0 km/h (0 Bft) 100 %
27.12.2017 09:20 1,4 C 1,4 C 1,4 C 89 % 990,2 hPa 0,0 l/m 0,0 km/h (0 Bft) NW 315 0 min 0,000 mm 35 W/m -0,2 C 1,4 C 1,6 km/h (1 Bft) 100 %
27.12.2017 09:30 1,4 C 1,4 C 1,4 C 89 % 989,8 hPa 0,0 l/m 0,0 km/h (0 Bft) N 0 0 min 0,000 mm 44 W/m -0,2 C 1,4 C 0,0 km/h (0 Bft) 100 %
27.12.2017 09:40 1,4 C 1,4 C 1,4 C 90 % 989,7 hPa 0,0 l/m 0,0 km/h (0 Bft) N 0 0 min 0,000 mm 54 W/m -0,1 C 1,4 C 0,0 km/h (0 Bft) 100 %
27.12.2017 09:50 1,5 C 1,4 C 1,5 C 90 % 989,4 hPa 0,0 l/m 0,0 km/h (0 Bft) N 0 0 min 0,000 mm 79 W/m 0,0 C 1,5 C 0,0 km/h (0 Bft) 100 %
27.12.2017 10:00 1,7 C 1,5 C 1,7 C 90 % 989,3 hPa 0,0 l/m 0,0 km/h (0 Bft) N 0 0 min 0,025 mm 74 W/m 0,2 C 1,7 C 0,0 km/h (0 Bft) 100 %
27.12.2017 10:10 1,9 C 1,7 C 1,9 C 90 % 989,4 hPa 0,0 l/m 0,0 km/h (0 Bft) N 0 0 min 0,000 mm 58 W/m 0,4 C 1,9 C 0,0 km/h (0 Bft) 100 %
27.12.2017 10:20 2,0 C 1,9 C 2,0 C 90 % 989,5 hPa 0,0 l/m 0,0 km/h (0 Bft) N 0 0 min 0,000 mm 49 W/m 0,5 C 2,0 C 0,0 km/h (0 Bft) 100 %
27.12.2017 10:30 2,1 C 2,0 C 2,1 C 89 % 989,7 hPa 0,0 l/m 0,0 km/h (0 Bft) N 0 0 min 0,000 mm 51 W/m 0,5 C 2,1 C 0,0 km/h (0 Bft) 100 %
27.12.2017 10:40 2,1 C 2,0 C 2,1 C 89 % 989,7 hPa 0,0 l/m 0,0 km/h (0 Bft) N 0 0 min 0,000 mm 39 W/m 0,5 C 2,1 C 0,0 km/h (0 Bft) 100 %
27.12.2017 10:50 2,2 C 2,1 C 2,2 C 90 % 989,6 hPa 0,0 l/m 0,0 km/h (0 Bft) NW 315 0 min 0,000 mm 44 W/m 0,7 C 2,2 C 3,2 km/h (1 Bft) 100 %
27.12.2017 11:00 2,6 C 2,2 C 2,6 C 84 % 989,4 hPa 0,0 l/m 1,6 km/h (1 Bft) SO 135 0 min 0,025 mm 54 W/m 0,2 C 2,6 C 6,4 km/h (2 Bft) 100 %
27.12.2017 11:10 3,0 C 2,6 C 3,0 C 87 % 988,9 hPa 0,2 l/m 0,0 km/h (0 Bft) S 180 0 min 0,000 mm 56 W/m 1,1 C 3,0 C 4,8 km/h (1 Bft) 100 %
27.12.2017 11:20 3,1 C 3,0 C 3,2 C 85 % 988,7 hPa 0,2 l/m 0,0 km/h (0 Bft) S-SO 157 0 min 0,000 mm 62 W/m 0,8 C 3,1 C 4,8 km/h (1 Bft) 100 %
27.12.2017 11:30 3,2 C 3,1 C 3,2 C 85 % 988,5 hPa 0,0 l/m 1,6 km/h (1 Bft) O-SO 112 0 min 0,000 mm 54 W/m 0,9 C 3,2 C 6,4 km/h (2 Bft) 100 %
27.12.2017 11:40 3,2 C 3,2 C 3,2 C 87 % 988,3 hPa 0,0 l/m 1,6 km/h (1 Bft) O-SO 112 0 min 0,000 mm 86 W/m 1,2 C 3,2 C 6,4 km/h (2 Bft) 91 %
27.12.2017 11:50 3,1 C 3,1 C 3,2 C 86 % 988,0 hPa 0,2 l/m 4,8 km/h (1 Bft) O-SO 112 0 min 0,000 mm 93 W/m 1,0 C 3,1 C 11,3 km/h (2 Bft) 100 %
27.12.2017 12:00 3,1 C 3,1 C 3,1 C 87 % 987,8 hPa 0,0 l/m 3,2 km/h (1 Bft) SO 135 0 min 0,025 mm 84 W/m 1,2 C 3,1 C 11,3 km/h (2 Bft) 100 %
27.12.2017 12:10 3,2 C 3,1 C 3,2 C 87 % 987,5 hPa 0,0 l/m 1,6 km/h (1 Bft) S-SO 157 0 min 0,000 mm 77 W/m 1,2 C 3,2 C 9,7 km/h (2 Bft) 100 %
27.12.2017 12:20 3,2 C 3,2 C 3,2 C 87 % 987,2 hPa 0,0 l/m 1,6 km/h (1 Bft) S-SW 202 0 min 0,000 mm 77 W/m 1,2 C 3,2 C 8,0 km/h (2 Bft) 100 %
27.12.2017 12:30 3,3 C 3,2 C 3,3 C 87 % 987,2 hPa 0,0 l/m 1,6 km/h (1 Bft) S-SO 157 0 min 0,000 mm 86 W/m 1,3 C 3,3 C 6,4 km/h (2 Bft) 100 %
27.12.2017 12:40 3,4 C 3,2 C 3,4 C 89 % 987,1 hPa 0,0 l/m 0,0 km/h (0 Bft) S 184 0 min 0,001 mm 88 W/m 1,8 C 3,4 C 0,0 km/h (0 Bft) 100 %
27.12.2017 12:50 3,5 C 3,4 C 3,5 C 89 % 987,0 hPa 0,0 l/m 0,0 km/h (0 Bft) S 183 0 min 0,000 mm 72 W/m 1,9 C 3,5 C 0,0 km/h (0 Bft) 100 %
27.12.2017 13:00 3,6 C 3,5 C 3,6 C 89 % 986,9 hPa 0,0 l/m 0,2 km/h (0 Bft) S 180 0 min 0,026 mm 62 W/m 2,0 C 3,6 C 3,2 km/h (1 Bft) 100 %
27.12.2017 13:10 3,6 C 3,6 C 3,7 C 89 % 987,0 hPa 0,0 l/m 0,0 km/h (0 Bft) S 184 0 min 0,000 mm 49 W/m 2,0 C 3,6 C 0,0 km/h (0 Bft) 100 %
27.12.2017 13:20 3,7 C 3,6 C 3,7 C 88 % 986,7 hPa 0,0 l/m 0,0 km/h (0 Bft) S 184 0 min 0,000 mm 60 W/m 1,9 C 3,7 C 0,0 km/h (0 Bft) 100 %
27.12.2017 13:30 3,7 C 3,6 C 3,7 C 89 % 986,7 hPa 0,0 l/m 0,0 km/h (0 Bft) S 184 0 min 0,000 mm 79 W/m 2,1 C 3,7 C 0,0 km/h (0 Bft) 100 %
27.12.2017 13:40 3,8 C 3,7 C 3,8 C 89 % 986,6 hPa 0,0 l/m 0,0 km/h (0 Bft) S 184 0 min 0,000 mm 69 W/m 2,2 C 3,8 C 0,0 km/h (0 Bft) 100 %
27.12.2017 13:50 3,8 C 3,8 C 3,8 C 89 % 986,7 hPa 0,0 l/m 0,0 km/h (0 Bft) S 184 0 min 0,000 mm 69 W/m 2,2 C 3,8 C 0,0 km/h (0 Bft) 100 %
27.12.2017 14:00 3,8 C 3,7 C 3,8 C 90 % 986,6 hPa 0,0 l/m 0,1 km/h (0 Bft) S 184 0 min 0,025 mm 74 W/m 2,3 C 3,8 C 3,2 km/h (1 Bft) 99 %
27.12.2017 14:10 3,9 C 3,8 C 3,9 C 90 % 986,6 hPa 0,2 l/m 1,2 km/h (1 Bft) S 178 0 min 0,000 mm 54 W/m 2,4 C 3,9 C 4,8 km/h (1 Bft) 99 %
27.12.2017 14:20 3,8 C 3,8 C 3,9 C 89 % 986,6 hPa 0,0 l/m 2,6 km/h (1 Bft) S-SO 153 0 min 0,000 mm 47 W/m 2,2 C 3,8 C 6,4 km/h (2 Bft) 99 %
27.12.2017 14:30 3,8 C 3,8 C 3,8 C 89 % 986,4 hPa 0,0 l/m 2,2 km/h (1 Bft) SO 142 0 min 0,000 mm 40 W/m 2,2 C 3,8 C 8,0 km/h (2 Bft) 100 %
27.12.2017 14:40 3,7 C 3,7 C 3,8 C 89 % 986,3 hPa 0,0 l/m 1,6 km/h (1 Bft) SO 146 0 min 0,000 mm 28 W/m 2,1 C 3,7 C 6,4 km/h (2 Bft) 100 %
27.12.2017 14:50 3,7 C 3,7 C 3,7 C 90 % 986,2 hPa 0,0 l/m 0,2 km/h (0 Bft) SO 145 0 min 0,000 mm 30 W/m 2,2 C 3,7 C 3,2 km/h (1 Bft) 100 %
27.12.2017 15:00 3,6 C 3,6 C 3,7 C 90 % 986,1 hPa 0,0 l/m 2,4 km/h (1 Bft) SO 146 0 min 0,025 mm 28 W/m 2,1 C 3,6 C 6,4 km/h (2 Bft) 100 %
27.12.2017 15:10 3,7 C 3,6 C 3,7 C 90 % 985,9 hPa 0,0 l/m 2,2 km/h (1 Bft) SO 137 0 min 0,000 mm 19 W/m 2,2 C 3,7 C 6,4 km/h (2 Bft) 100 %
27.12.2017 15:20 3,7 C 3,7 C 3,7 C 89 % 986,0 hPa 0,0 l/m 2,0 km/h (1 Bft) S-SO 147 0 min 0,000 mm 23 W/m 2,1 C 3,7 C 6,4 km/h (2 Bft) 100 %
27.12.2017 15:30 3,7 C 3,7 C 3,7 C 89 % 986,0 hPa 0,0 l/m 0,1 km/h (0 Bft) S-SO 147 0 min 0,000 mm 18 W/m 2,1 C 3,7 C 3,2 km/h (1 Bft) 100 %
27.12.2017 15:40 3,7 C 3,7 C 3,7 C 89 % 985,9 hPa 0,0 l/m 0,5 km/h (0 Bft) SO 145 0 min 0,000 mm 18 W/m 2,1 C 3,7 C 4,8 km/h (1 Bft) 100 %
27.12.2017 15:50 3,7 C 3,7 C 3,7 C 89 % 985,8 hPa 0,0 l/m 0,0 km/h (0 Bft) SO 145 0 min 0,000 mm 14 W/m 2,1 C 3,7 C 0,0 km/h (0 Bft) 100 %
27.12.2017 16:00 3,7 C 3,7 C 3,7 C 89 % 985,8 hPa 0,0 l/m 0,0 km/h (0 Bft) SO 145 0 min 0,000 mm 9 W/m 2,1 C 3,7 C 0,0 km/h (0 Bft) 99 %
27.12.2017 16:10 3,7 C 3,7 C 3,7 C 90 % 985,8 hPa 0,0 l/m 0,0 km/h (0 Bft) SO 145 0 min 0,000 mm 7 W/m 2,2 C 3,7 C 0,0 km/h (0 Bft) 100 %
27.12.2017 16:20 3,6 C 3,6 C 3,7 C 90 % 985,7 hPa 0,0 l/m 0,0 km/h (0 Bft) SO 145 0 min 0,000 mm 0 W/m 2,1 C 3,6 C 0,0 km/h (0 Bft) 100 %
27.12.2017 16:30 3,5 C 3,5 C 3,6 C 90 % 985,8 hPa 0,0 l/m 0,0 km/h (0 Bft) SO 145 0 min 0,000 mm 0 W/m 2,0 C 3,5 C 0,0 km/h (0 Bft) 99 %
27.12.2017 16:40 3,4 C 3,4 C 3,5 C 90 % 985,9 hPa 0,0 l/m 0,0 km/h (0 Bft) SO 145 0 min 0,000 mm 0 W/m 1,9 C 3,4 C 0,0 km/h (0 Bft) 100 %
27.12.2017 16:50 3,3 C 3,3 C 3,4 C 91 % 985,9 hPa 0,0 l/m 0,0 km/h (0 Bft) SO 145 0 min 0,000 mm 0 W/m 2,0 C 3,3 C 0,0 km/h (0 Bft) 100 %
27.12.2017 17:00 3,2 C 3,2 C 3,3 C 91 % 986,1 hPa 0,0 l/m 0,0 km/h (0 Bft) SO 145 0 min 0,000 mm 0 W/m 1,9 C 3,2 C 0,0 km/h (0 Bft) 100 %
27.12.2017 17:10 3,1 C 3,1 C 3,2 C 91 % 986,0 hPa 0,0 l/m 0,0 km/h (0 Bft) SO 145 0 min 0,000 mm 0 W/m 1,8 C 3,1 C 0,0 km/h (0 Bft) 100 %
27.12.2017 17:20 3,1 C 3,0 C 3,1 C 91 % 986,0 hPa 0,0 l/m 0,0 km/h (0 Bft) SO 145 0 min 0,000 mm 0 W/m 1,8 C 3,1 C 0,0 km/h (0 Bft) 100 %
27.12.2017 17:30 3,0 C 3,0 C 3,1 C 91 % 986,1 hPa 0,0 l/m 0,0 km/h (0 Bft) SO 145 0 min 0,000 mm 0 W/m 1,7 C 3,0 C 0,0 km/h (0 Bft) 100 %
27.12.2017 17:40 2,9 C 2,9 C 3,0 C 91 % 986,2 hPa 0,0 l/m 0,0 km/h (0 Bft) SO 145 0 min 0,000 mm 0 W/m 1,6 C 2,9 C 0,0 km/h (0 Bft) 100 %
27.12.2017 17:50 2,9 C 2,9 C 2,9 C 91 % 986,2 hPa 0,0 l/m 0,0 km/h (0 Bft) SO 145 0 min 0,000 mm 0 W/m 1,6 C 2,9 C 0,0 km/h (0 Bft) 100 %
27.12.2017 18:00 3,2 C 2,9 C 3,2 C 91 % 986,2 hPa 0,0 l/m 0,0 km/h (0 Bft) SO 145 0 min 0,000 mm 0 W/m 1,9 C 3,2 C 0,0 km/h (0 Bft) 100 %
27.12.2017 18:10 3,4 C 3,2 C 3,4 C 91 % 986,1 hPa 0,0 l/m 0,0 km/h (0 Bft) SO 145 0 min 0,000 mm 0 W/m 2,1 C 3,4 C 1,6 km/h (1 Bft) 99 %
27.12.2017 18:20 3,4 C 3,4 C 3,4 C 90 % 986,1 hPa 0,0 l/m 0,0 km/h (0 Bft) SO 145 0 min 0,000 mm 0 W/m 1,9 C 3,4 C 0,0 km/h (0 Bft) 100 %
27.12.2017 18:30 3,3 C 3,2 C 3,4 C 91 % 986,2 hPa 0,0 l/m 0,0 km/h (0 Bft) SO 145 0 min 0,000 mm 0 W/m 2,0 C 3,3 C 0,0 km/h (0 Bft) 100 %
27.12.2017 18:40 3,1 C 3,1 C 3,3 C 90 % 986,1 hPa 0,0 l/m 0,0 km/h (0 Bft) SO 145 0 min 0,000 mm 0 W/m 1,6 C 3,1 C 0,0 km/h (0 Bft) 100 %
27.12.2017 18:50 2,9 C 2,9 C 3,1 C 91 % 986,1 hPa 0,0 l/m 0,0 km/h (0 Bft) SO 145 0 min 0,000 mm 0 W/m 1,6 C 2,9 C 0,0 km/h (0 Bft) 99 %
27.12.2017 19:00 2,7 C 2,7 C 2,9 C 91 % 986,2 hPa 0,0 l/m 0,0 km/h (0 Bft) SO 146 0 min 0,000 mm 0 W/m 1,4 C 2,7 C 0,0 km/h (0 Bft) 100 %
27.12.2017 19:10 2,5 C 2,5 C 2,7 C 91 % 986,2 hPa 0,0 l/m 0,0 km/h (0 Bft) SO 146 0 min 0,000 mm 0 W/m 1,2 C 2,5 C 0,0 km/h (0 Bft) 91 %
27.12.2017 19:20 2,4 C 2,4 C 2,5 C 91 % 986,3 hPa 0,0 l/m 0,0 km/h (0 Bft) SO 146 0 min 0,000 mm 0 W/m 1,1 C 2,4 C 0,0 km/h (0 Bft) 100 %
27.12.2017 19:30 2,3 C 2,3 C 2,4 C 91 % 986,3 hPa 0,0 l/m 0,0 km/h (0 Bft) SO 146 0 min 0,000 mm 0 W/m 1,0 C 2,3 C 0,0 km/h (0 Bft) 100 %
27.12.2017 19:40 2,2 C 2,2 C 2,3 C 91 % 986,5 hPa 0,0 l/m 0,0 km/h (0 Bft) SO 146 0 min 0,000 mm 0 W/m 0,9 C 2,2 C 0,0 km/h (0 Bft) 100 %
27.12.2017 19:50 1,9 C 1,9 C 2,2 C 91 % 986,6 hPa 0,0 l/m 0,0 km/h (0 Bft) SO 146 0 min 0,000 mm 0 W/m 0,6 C 1,9 C 0,0 km/h (0 Bft) 100 %
27.12.2017 20:00 1,9 C 1,8 C 1,9 C 91 % 986,6 hPa 0,0 l/m 0,0 km/h (0 Bft) SO 146 0 min 0,000 mm 0 W/m 0,6 C 1,9 C 0,0 km/h (0 Bft) 100 %
27.12.2017 20:10 1,8 C 1,8 C 1,9 C 91 % 986,7 hPa 0,0 l/m 0,0 km/h (0 Bft) SO 146 0 min 0,000 mm 0 W/m 0,5 C 1,8 C 0,0 km/h (0 Bft) 100 %
27.12.2017 20:20 1,8 C 1,8 C 1,8 C 91 % 986,7 hPa 0,0 l/m 0,0 km/h (0 Bft) SO 146 0 min 0,000 mm 0 W/m 0,5 C 1,8 C 0,0 km/h (0 Bft) 100 %
27.12.2017 20:30 1,8 C 1,8 C 1,8 C 91 % 986,8 hPa 0,0 l/m 0,0 km/h (0 Bft) SO 146 0 min 0,000 mm 0 W/m 0,5 C 1,8 C 0,0 km/h (0 Bft) 100 %
27.12.2017 20:40 1,8 C 1,8 C 1,8 C 91 % 986,9 hPa 0,0 l/m 0,0 km/h (0 Bft) SO 146 0 min 0,000 mm 0 W/m 0,5 C 1,8 C 0,0 km/h (0 Bft) 100 %
27.12.2017 20:50 1,8 C 1,7 C 1,8 C 91 % 987,1 hPa 0,0 l/m 0,0 km/h (0 Bft) SO 146 0 min 0,000 mm 0 W/m 0,5 C 1,8 C 0,0 km/h (0 Bft) 99 %
27.12.2017 21:00 1,8 C 1,8 C 1,8 C 91 % 987,4 hPa 0,0 l/m 0,0 km/h (0 Bft) S-SO 148 0 min 0,000 mm 0 W/m 0,5 C 1,8 C 0,0 km/h (0 Bft) 100 %
27.12.2017 21:10 1,9 C 1,8 C 1,9 C 91 % 987,3 hPa 0,2 l/m 0,0 km/h (0 Bft) S-SO 157 0 min 0,000 mm 0 W/m 0,6 C 1,9 C 4,8 km/h (1 Bft) 97 %
27.12.2017 21:20 2,4 C 1,9 C 2,4 C 91 % 987,6 hPa 0,0 l/m 4,8 km/h (1 Bft) S 180 0 min 0,000 mm 0 W/m 1,1 C 2,4 C 11,3 km/h (2 Bft) 97 %
27.12.2017 21:30 3,0 C 2,4 C 3,0 C 91 % 987,6 hPa 0,2 l/m 9,7 km/h (2 Bft) S-SW 202 0 min 0,000 mm 0 W/m 1,7 C 0,1 C 19,3 km/h (3 Bft) 96 %
27.12.2017 21:40 3,2 C 3,0 C 3,2 C 91 % 987,8 hPa 0,0 l/m 6,4 km/h (2 Bft) SW 225 0 min 0,000 mm 0 W/m 1,9 C 3,2 C 16,1 km/h (3 Bft) 98 %
27.12.2017 21:50 3,4 C 3,2 C 3,4 C 91 % 987,9 hPa 0,0 l/m 8,0 km/h (2 Bft) SW 225 0 min 0,000 mm 0 W/m 2,1 C 1,9 C 19,3 km/h (3 Bft) 98 %
27.12.2017 22:00 3,5 C 3,4 C 3,5 C 91 % 988,0 hPa 0,0 l/m 8,0 km/h (2 Bft) W-SW 247 0 min 0,000 mm 0 W/m 2,2 C 2,0 C 20,9 km/h (4 Bft) 98 %
27.12.2017 22:10 3,6 C 3,5 C 3,6 C 90 % 988,0 hPa 0,0 l/m 8,0 km/h (2 Bft) W-SW 247 0 min 0,000 mm 0 W/m 2,1 C 2,1 C 25,7 km/h (4 Bft) 89 %
27.12.2017 22:20 3,7 C 3,6 C 3,7 C 91 % 988,0 hPa 0,0 l/m 8,0 km/h (2 Bft) W 270 0 min 0,000 mm 0 W/m 2,4 C 2,2 C 32,2 km/h (5 Bft) 97 %
27.12.2017 22:30 3,7 C 3,6 C 3,7 C 91 % 988,2 hPa 0,0 l/m 9,7 km/h (2 Bft) W-SW 247 0 min 0,000 mm 0 W/m 2,4 C 0,9 C 24,1 km/h (4 Bft) 98 %
27.12.2017 22:40 3,6 C 3,6 C 3,7 C 90 % 988,2 hPa 0,0 l/m 11,3 km/h (2 Bft) W-SW 247 0 min 0,000 mm 0 W/m 2,1 C -0,4 C 25,7 km/h (4 Bft) 98 %
27.12.2017 22:50 3,4 C 3,4 C 3,6 C 91 % 988,4 hPa 0,0 l/m 11,3 km/h (2 Bft) W-SW 247 0 min 0,000 mm 0 W/m 2,1 C -0,6 C 29,0 km/h (5 Bft) 97 %
27.12.2017 23:00 3,4 C 3,4 C 3,4 C 91 % 988,5 hPa 0,0 l/m 14,5 km/h (3 Bft) W-SW 247 0 min 0,000 mm 0 W/m 2,1 C -2,6 C 30,6 km/h (5 Bft) 98 %
27.12.2017 23:10 3,4 C 3,4 C 3,4 C 91 % 988,6 hPa 0,0 l/m 11,3 km/h (2 Bft) SW 225 0 min 0,000 mm 0 W/m 2,1 C -0,6 C 25,7 km/h (4 Bft) 97 %
27.12.2017 23:20 3,3 C 3,3 C 3,4 C 91 % 988,9 hPa 0,0 l/m 9,7 km/h (2 Bft) W-SW 247 0 min 0,000 mm 0 W/m 2,0 C 0,4 C 24,1 km/h (4 Bft) 97 %
27.12.2017 23:30 3,2 C 3,2 C 3,3 C 91 % 989,0 hPa 0,0 l/m 8,0 km/h (2 Bft) W-SW 247 0 min 0,000 mm 0 W/m 1,9 C 1,7 C 22,5 km/h (4 Bft) 98 %
27.12.2017 23:40 3,1 C 3,1 C 3,2 C 91 % 989,1 hPa 0,0 l/m 8,0 km/h (2 Bft) W 270 0 min 0,000 mm 0 W/m 1,8 C 1,6 C 17,7 km/h (3 Bft) 98 %
27.12.2017 23:50 2,9 C 2,9 C 3,1 C 90 % 989,1 hPa 0,0 l/m 8,0 km/h (2 Bft) W-SW 247 0 min 0,000 mm 0 W/m 1,4 C 1,4 C 22,5 km/h (4 Bft) 97 %
_ Min-Zeit 04:00 04:00 04:10 00:10 16:20 - 00:00 - - - - - 03:50 23:00 00:10 00:40
Minimum _ -0,3 C -0,3 C -0,3 C 81 % 985,7 hPa - 0,0 km/h (0 Bft) - - - - - -1,8 C -2,6 C 0,0 km/h (0 Bft) 88 %
_ Max-Zeit 14:10 13:50 14:10 16:50 00:00 11:10 23:00 - - 00:00 13:00 11:50 14:10 14:10 22:20 03:40
Maximum _ 3,9 C 3,8 C 3,9 C 91 % 1000,5 hPa 0,2 l/m 14,5 km/h
W-SW (3 Bft)
- - 0 min 0,026 mm 93 W/m 2,4 C 3,9 C 32,2 km/h
W (5 Bft)
100 %
Durchschnitt _ 2,3 C 2,2 C 2,3 C 89 % 990,0 hPa #1,2 l/m 1,3 km/h (1 Bft) SO - #0 min. #0,152 mm 50 W/m 0,6 C 2,0 C 4,5 km/h (1 Bft) 99 %
PRIVATE WETTERSTATION BILLIGHEIM-ALLFELD - www.neckar-odenwald-wetter.de - Holger Sonntag